| time (UTC) | temp F | wind direction | speed knots | gust knots | rain 1hr in | rain 24hr in | rain mn in | humidity % | barometer mb |
| 20260510043100 | 68 | 59 | 0.0 | 0.0 | 0.00 | 0.71 | 0.71 | 93 | 1012.9 |
| 20260510041546 | 68 | 59 | 0.0 | 0.0 | 0.00 | 0.71 | 0.71 | 93 | 1013.0 |
| 20260510040005 | 68 | 59 | 0.0 | 0.0 | 0.00 | 0.71 | 0.71 | 93 | 1013.0 |
| 20260510034554 | 68 | 59 | 0.0 | 0.0 | 0.00 | 0.71 | 0.71 | 93 | 1012.9 |
| 20260510033029 | 68 | 59 | 0.0 | 0.0 | 0.00 | 0.71 | 0.71 | 93 | 1012.9 |
| 20260510031607 | 68 | 59 | 0.0 | 0.0 | 0.00 | 0.71 | 0.71 | 93 | 1013.0 |
| 20260510030030 | 68 | 59 | 0.0 | 0.0 | 0.00 | 0.71 | 0.71 | 93 | 1013.1 |
| 20260510024613 | 68 | 59 | 0.0 | 0.0 | 0.00 | 0.71 | 0.71 | 93 | 1013.0 |
| 20260510023025 | 68 | 59 | 0.0 | 0.0 | 0.00 | 0.71 | 0.71 | 92 | 1012.7 |
| 20260510021553 | 68 | 59 | 0.0 | 0.0 | 0.00 | 0.71 | 0.71 | 93 | 1012.4 |
| 20260510020027 | 69 | 59 | 0.0 | 0.0 | 0.00 | 0.71 | 0.71 | 92 | 1012.0 |
| 20260510014616 | 69 | 59 | 0.0 | 0.0 | 0.00 | 0.71 | 0.71 | 92 | 1012.0 |
| 20260510013049 | 69 | 59 | 0.0 | 0.0 | 0.00 | 0.71 | 0.71 | 93 | 1011.5 |
| 20260510011514 | 69 | 59 | 0.0 | 0.0 | 0.00 | 0.71 | 0.71 | 92 | 1011.5 |
| 20260510010046 | 69 | 59 | 0.0 | 0.0 | 0.00 | 0.71 | 0.71 | 92 | 1011.4 |
| 20260510004516 | 69 | 55 | 0.0 | 0.0 | 0.00 | 0.71 | 0.71 | 92 | 1011.4 |
| 20260510003048 | 69 | 319 | 0.0 | 0.0 | 0.00 | 0.71 | 0.71 | 92 | 1011.2 |
| 20260510001518 | 69 | 39 | 0.0 | 0.0 | 0.00 | 0.71 | 0.71 | 92 | 1011.2 |
| 20260510000059 | 70 | 94 | 0.0 | 0.0 | 0.00 | 0.71 | 0.71 | 92 | 1010.8 |
| 20260509234533 | 70 | 78 | 0.0 | 0.0 | 0.00 | 0.71 | 0.71 | 92 | 1011.3 |
| 20260509233004 | 70 | 78 | 0.0 | 0.0 | 0.00 | 0.71 | 0.71 | 92 | 1011.3 |
| 20260509231534 | 70 | 40 | 0.0 | 0.0 | 0.00 | 0.71 | 0.71 | 92 | 1011.0 |
| 20260509224537 | 70 | 40 | 0.0 | 0.0 | 0.13 | 0.71 | 0.71 | 92 | 1011.1 |
| 20260509223013 | 70 | 95 | 0.0 | 0.0 | 0.27 | 0.71 | 0.71 | 92 | 1011.4 |
| 20260509221548 | 71 | 279 | 0.0 | 0.0 | 0.40 | 0.71 | 0.71 | 92 | 1011.0 |
| 20260509220014 | 70 | 46 | 0.0 | 0.9 | 0.40 | 0.70 | 0.70 | 91 | 1011.0 |
| 20260509214554 | 71 | 338 | 0.0 | 2.6 | 0.28 | 0.57 | 0.57 | 91 | 1011.1 |
| 20260509213028 | 71 | 32 | 0.0 | 4.3 | 0.15 | 0.44 | 0.44 | 90 | 1011.1 |
| 20260509211605 | 72 | 180 | 0.0 | 0.0 | 0.02 | 0.31 | 0.31 | 90 | 1011.3 |
| 20260509210049 | 72 | 179 | 0.0 | 0.0 | 0.04 | 0.30 | 0.30 | 90 | 1010.8 |
| 20260509204504 | 72 | 120 | 0.0 | 0.0 | 0.10 | 0.28 | 0.28 | 90 | 1011.0 |
| 20260509203041 | 72 | 197 | 0.0 | 0.0 | 0.10 | 0.28 | 0.28 | 89 | 1011.1 |
| 20260509201524 | 72 | 63 | 0.0 | 0.0 | 0.10 | 0.28 | 0.28 | 88 | 1011.0 |
| 20260509200059 | 73 | 56 | 0.0 | 0.0 | 0.07 | 0.26 | 0.26 | 85 | 1011.2 |
| 20260509194533 | 74 | 341 | 0.0 | 0.0 | 0.00 | 0.19 | 0.19 | 85 | 1011.3 |
| 20260509193100 | 74 | 360 | 0.0 | 0.0 | 0.00 | 0.19 | 0.19 | 84 | 1011.3 |
| 20260509191532 | 74 | 34 | 0.0 | 0.0 | 0.00 | 0.19 | 0.19 | 84 | 1011.1 |
| 20260509190002 | 74 | 54 | 0.0 | 0.0 | 0.00 | 0.19 | 0.19 | 84 | 1011.1 |
| 20260509184545 | 74 | 55 | 0.0 | 0.0 | 0.00 | 0.19 | 0.19 | 84 | 1011.1 |
| 20260509183018 | 74 | 55 | 0.0 | 0.0 | 0.00 | 0.19 | 0.19 | 84 | 1011.3 |
| 20260509181556 | 74 | 53 | 0.0 | 0.0 | 0.00 | 0.19 | 0.19 | 86 | 1011.3 |
| 20260509180038 | 73 | 36 | 0.0 | 0.0 | 0.00 | 0.19 | 0.19 | 87 | 1011.3 |
| 20260509174600 | 73 | 43 | 0.0 | 0.0 | 0.00 | 0.19 | 0.19 | 88 | 1011.6 |
| 20260509173054 | 72 | 32 | 0.0 | 0.0 | 0.00 | 0.19 | 0.19 | 90 | 1011.5 |
| 20260509171607 | 72 | 347 | 0.0 | 0.0 | 0.00 | 0.19 | 0.19 | 91 | 1011.9 |
| 20260509170042 | 72 | 244 | 0.0 | 0.0 | 0.00 | 0.19 | 0.19 | 92 | 1012.2 |
| 20260509164608 | 72 | 246 | 0.0 | 0.0 | 0.00 | 0.26 | 0.19 | 92 | 1012.3 |
| 20260509163045 | 72 | 252 | 0.0 | 0.0 | 0.00 | 0.26 | 0.19 | 93 | 1012.4 |
| 20260509161513 | 71 | 249 | 0.0 | 0.0 | 0.00 | 0.26 | 0.19 | 93 | 1012.2 |
| 20260509160054 | 71 | 153 | 0.0 | 0.0 | 0.00 | 0.26 | 0.19 | 93 | 1012.1 |
| 20260509154526 | 71 | 228 | 0.0 | 0.0 | 0.00 | 0.65 | 0.19 | 93 | 1012.0 |
| 20260509153101 | 71 | 274 | 0.0 | 0.0 | 0.00 | 0.65 | 0.19 | 94 | 1011.7 |
| 20260509151555 | 70 | 284 | 0.0 | 0.0 | 0.00 | 0.65 | 0.19 | 94 | 1011.4 |
| 20260509150010 | 69 | 284 | 0.0 | 0.0 | 0.00 | 0.65 | 0.19 | 94 | 1011.4 |
| 20260509144552 | 69 | 284 | 0.0 | 0.0 | 0.00 | 1.51 | 0.19 | 94 | 1011.5 |
| 20260509143028 | 68 | 298 | 0.0 | 0.0 | 0.00 | 1.51 | 0.19 | 94 | 1011.5 |
| 20260509141501 | 67 | 323 | 0.0 | 0.0 | 0.00 | 1.51 | 0.19 | 93 | 1011.7 |
| 20260509140040 | 67 | 323 | 0.0 | 0.0 | 0.00 | 1.51 | 0.19 | 94 | 1011.8 |
| 20260509134512 | 67 | 331 | 0.0 | 0.0 | 0.00 | 1.60 | 0.19 | 93 | 1011.8 |
| 20260509133052 | 67 | 316 | 0.0 | 0.0 | 0.00 | 1.60 | 0.19 | 93 | 1011.7 |
| 20260509131516 | 66 | 333 | 0.0 | 0.9 | 0.00 | 1.60 | 0.19 | 93 | 1011.4 |
| 20260509130106 | 66 | 26 | 0.0 | 0.0 | 0.00 | 1.60 | 0.19 | 93 | 1011.6 |
| 20260509124529 | 66 | 24 | 0.0 | 0.0 | 0.00 | 1.60 | 0.19 | 93 | 1011.6 |
| 20260509123118 | 66 | 13 | 0.0 | 0.0 | 0.00 | 1.60 | 0.19 | 93 | 1011.5 |
| 20260509121524 | 66 | 17 | 0.0 | 0.0 | 0.00 | 1.60 | 0.19 | 93 | 1011.3 |
| 20260509120100 | 66 | 17 | 0.0 | 0.0 | 0.00 | 1.60 | 0.19 | 93 | 1011.4 |
| 20260509114531 | 66 | 42 | 0.0 | 0.0 | 0.00 | 1.60 | 0.19 | 93 | 1011.5 |
| 20260509113013 | 66 | 61 | 0.0 | 0.0 | 0.00 | 1.60 | 0.19 | 93 | 1011.1 |
| 20260509111601 | 65 | 61 | 0.0 | 0.0 | 0.00 | 1.60 | 0.19 | 93 | 1011.1 |
| 20260509110027 | 65 | 61 | 0.0 | 0.0 | 0.00 | 1.60 | 0.19 | 93 | 1010.9 |
| 20260509104556 | 65 | 61 | 0.0 | 0.0 | 0.01 | 1.60 | 0.19 | 93 | 1010.8 |
| 20260509103022 | 65 | 61 | 0.0 | 0.0 | 0.10 | 1.60 | 0.19 | 93 | 1010.8 |
| 20260509101601 | 65 | 61 | 0.0 | 0.0 | 0.19 | 1.60 | 0.19 | 93 | 1010.9 |
| 20260509100027 | 66 | 61 | 0.0 | 0.0 | 0.19 | 1.60 | 0.19 | 92 | 1011.1 |
| 20260509094608 | 66 | 61 | 0.0 | 0.9 | 0.18 | 1.59 | 0.18 | 92 | 1011.8 |
| 20260509093048 | 67 | 275 | 0.0 | 0.9 | 0.09 | 1.50 | 0.09 | 93 | 1012.1 |
| 20260509091517 | 69 | 58 | 0.0 | 0.9 | 0.00 | 1.41 | 0.00 | 93 | 1012.2 |
| 20260509090052 | 69 | 105 | 0.0 | 0.0 | 0.00 | 1.41 | 0.00 | 93 | 1011.3 |
| 20260509084529 | 68 | 105 | 0.0 | 0.0 | 0.00 | 1.41 | 0.00 | 93 | 1010.8 |
| 20260509083005 | 68 | 105 | 0.0 | 0.0 | 0.00 | 1.41 | 0.00 | 93 | 1010.4 |
| 20260509081550 | 68 | 105 | 0.0 | 0.0 | 0.00 | 1.41 | 0.00 | 93 | 1009.8 |
| 20260509080025 | 68 | 105 | 0.0 | 0.0 | 0.00 | 1.41 | 0.00 | 93 | 1009.9 |
| 20260509074559 | 68 | 105 | 0.0 | 0.0 | 0.00 | 1.41 | 0.00 | 93 | 1010.1 |
| 20260509073027 | 69 | 105 | 0.0 | 0.0 | 0.00 | 1.41 | 0.00 | 93 | 1010.2 |
| 20260509071604 | 69 | 105 | 0.0 | 0.0 | 0.00 | 1.41 | 0.00 | 93 | 1010.7 |
| 20260509070040 | 69 | 105 | 0.0 | 0.0 | 0.00 | 1.41 | 0.00 | 93 | 1011.0 |
| 20260509064512 | 69 | 105 | 0.0 | 0.0 | 0.00 | 1.41 | 0.00 | 93 | 1011.0 |
| 20260509063052 | 69 | 105 | 0.0 | 0.0 | 0.00 | 1.41 | 0.00 | 93 | 1011.3 |
| 20260509061516 | 68 | 167 | 0.0 | 0.0 | 0.00 | 1.41 | 0.00 | 93 | 1011.3 |
| 20260509060150 | 68 | 167 | 0.0 | 0.0 | 0.00 | 1.41 | 0.00 | 93 | 1011.4 |
| 20260509054509 | 68 | 168 | 0.0 | 0.0 | 0.00 | 1.41 | 0.00 | 93 | 1011.5 |
| 20260509053038 | 68 | 168 | 0.0 | 0.0 | 0.00 | 1.41 | 0.00 | 92 | 1011.1 |
| 20260509051510 | 69 | 168 | 0.0 | 0.0 | 0.00 | 1.41 | 0.00 | 92 | 1011.0 |
| 20260509050053 | 69 | 167 | 0.0 | 0.0 | 0.00 | 1.41 | 0.00 | 92 | 1011.0 |
| 20260509044518 | 69 | 167 | 0.0 | 0.0 | 0.00 | 1.41 | 1.41 | 92 | 1011.0 |